createdAt,value
2022-08-04T00:06:05.126Z,21.91
2022-08-04T00:16:38.231Z,21.72
2022-08-04T00:27:00.503Z,21.75
2022-08-04T00:37:23.034Z,21.62
2022-08-04T00:47:53.196Z,21.51
2022-08-04T00:58:16.458Z,21.66
2022-08-04T01:08:58.364Z,21.65
2022-08-04T01:19:58.846Z,21.46
2022-08-04T01:30:20.602Z,21.48
2022-08-04T01:40:44.517Z,21.60
2022-08-04T01:51:07.897Z,21.42
2022-08-04T02:01:29.616Z,21.42
2022-08-04T02:12:16.352Z,21.49
2022-08-04T02:22:54.786Z,21.35
2022-08-04T02:33:24.718Z,21.38
2022-08-04T02:43:51.957Z,21.35
2022-08-04T02:54:31.706Z,21.34
2022-08-04T03:05:03.389Z,21.31
2022-08-04T03:16:02.424Z,21.31
2022-08-04T03:26:45.765Z,21.21
2022-08-04T03:37:45.788Z,21.29
2022-08-04T03:48:26.149Z,21.37
2022-08-04T03:59:24.424Z,21.21
2022-08-04T04:09:57.649Z,21.21
2022-08-04T04:20:54.812Z,21.33
2022-08-04T04:31:37.622Z,21.47
2022-08-04T04:42:29.350Z,21.49
2022-08-04T04:52:56.838Z,21.48
2022-08-04T05:04:22.071Z,21.65
2022-08-04T05:14:54.956Z,21.76
2022-08-04T05:25:25.422Z,22.10
2022-08-04T05:36:17.046Z,22.64
2022-08-04T05:46:33.722Z,22.92
2022-08-04T05:56:57.237Z,23.19
2022-08-04T06:07:19.251Z,23.27
2022-08-04T06:19:57.459Z,23.37
2022-08-04T06:28:30.298Z,23.79
2022-08-04T06:38:59.739Z,24.13
2022-08-04T06:49:23.277Z,24.20
2022-08-04T06:59:46.592Z,24.64
2022-08-04T07:10:10.336Z,25.17
2022-08-04T07:20:36.188Z,25.62
2022-08-04T07:30:58.737Z,25.64
2022-08-04T07:41:39.094Z,25.91
2022-08-04T07:52:01.900Z,26.65
2022-08-04T08:02:24.090Z,27.09
2022-08-04T08:12:51.307Z,27.41
2022-08-04T08:23:13.879Z,27.50
2022-08-04T08:33:35.815Z,27.78
2022-08-04T08:44:40.145Z,28.33
2022-08-04T08:55:40.171Z,28.78
2022-08-04T09:06:38.799Z,29.32
2022-08-04T09:17:06.655Z,29.50
2022-08-04T09:27:38.880Z,29.63
2022-08-04T09:38:16.147Z,29.89
2022-08-04T09:48:48.486Z,30.33
2022-08-04T09:59:42.972Z,30.67
2022-08-04T10:10:26.067Z,30.72
2022-08-04T10:20:56.817Z,31.06
2022-08-04T10:31:26.573Z,31.34
2022-08-04T10:42:10.064Z,31.78
2022-08-04T10:52:43.183Z,32.01
2022-08-04T11:03:08.953Z,32.17
2022-08-04T11:14:05.029Z,32.37
2022-08-04T11:24:47.980Z,32.74
2022-08-04T11:35:16.364Z,33.63
2022-08-04T11:45:50.754Z,33.41
2022-08-04T11:56:35.859Z,33.70
2022-08-04T12:07:30.618Z,32.82
2022-08-04T12:18:08.480Z,32.73
2022-08-04T12:28:52.706Z,32.24
2022-08-04T12:39:17.996Z,31.98
2022-08-04T12:49:44.262Z,31.68
2022-08-04T13:00:30.126Z,31.68
2022-08-04T13:10:59.896Z,31.54
2022-08-04T13:21:49.899Z,32.10
2022-08-04T13:32:06.397Z,31.71
2022-08-04T13:42:28.959Z,31.05
2022-08-04T13:52:55.917Z,30.02
2022-08-04T14:03:59.540Z,28.40
2022-08-04T14:14:30.184Z,27.24
2022-08-04T14:25:16.087Z,26.74
2022-08-04T14:35:50.357Z,26.44
2022-08-04T14:46:13.161Z,26.34
2022-08-04T14:56:46.800Z,25.70
2022-08-04T15:07:10.033Z,25.69
2022-08-04T15:17:31.884Z,25.76
2022-08-04T15:27:54.545Z,25.37
2022-08-04T15:38:37.031Z,25.99
2022-08-04T15:49:19.238Z,25.97
2022-08-04T16:00:01.132Z,26.36
2022-08-04T16:10:34.127Z,26.57
2022-08-04T16:20:58.688Z,26.36
2022-08-04T16:31:20.291Z,26.87
2022-08-04T16:41:43.118Z,27.32
2022-08-04T16:52:10.683Z,27.51
2022-08-04T17:02:36.416Z,26.98
2022-08-04T17:13:14.339Z,27.13
2022-08-04T17:24:14.884Z,27.20
2022-08-04T17:34:26.721Z,27.17
2022-08-04T17:44:48.906Z,26.88
2022-08-04T17:55:13.627Z,26.27
2022-08-04T18:06:02.289Z,25.98
2022-08-04T18:16:22.885Z,25.43
2022-08-04T18:26:45.790Z,25.27
2022-08-04T18:47:58.778Z,24.38
2022-08-04T18:58:27.182Z,24.05
2022-08-04T19:08:49.626Z,23.85
2022-08-04T19:19:11.465Z,23.38
2022-08-04T19:29:37.792Z,23.27
2022-08-04T19:40:05.528Z,23.02
2022-08-04T19:50:27.538Z,22.72
2022-08-04T20:00:51.507Z,22.80
2022-08-04T20:11:13.228Z,21.96
2022-08-04T20:21:55.425Z,21.89
2022-08-04T20:32:25.730Z,22.10
2022-08-04T20:42:47.524Z,21.64
2022-08-04T20:53:16.822Z,21.11
2022-08-04T21:04:00.602Z,21.46
2022-08-04T21:14:22.727Z,21.47
2022-08-04T21:24:51.623Z,21.39
2022-08-04T21:35:15.175Z,21.10
2022-08-04T21:45:37.847Z,21.07
2022-08-04T21:56:06.868Z,20.61
2022-08-04T22:06:29.224Z,20.94
2022-08-04T22:16:51.946Z,20.74
2022-08-04T22:27:35.987Z,20.93
2022-08-04T22:38:07.207Z,20.72
2022-08-04T22:48:39.967Z,20.60
2022-08-04T22:59:05.529Z,20.81
2022-08-04T23:09:49.066Z,20.85
2022-08-04T23:20:23.308Z,20.82
2022-08-04T23:30:50.963Z,20.74
2022-08-04T23:41:17.295Z,20.72
2022-08-04T23:51:38.890Z,20.61
